createdAt,value
2022-12-07T00:02:15.379Z,24.70
2022-12-07T00:04:44.036Z,36.50
2022-12-07T00:07:14.480Z,27.95
2022-12-07T00:09:44.036Z,24.95
2022-12-07T00:12:11.762Z,27.67
2022-12-07T00:17:07.334Z,29.05
2022-12-07T00:19:35.074Z,26.60
2022-12-07T00:22:02.888Z,29.42
2022-12-07T00:26:59.506Z,23.10
2022-12-07T00:29:27.325Z,27.33
2022-12-07T00:31:57.517Z,23.63
2022-12-07T00:34:25.314Z,25.23
2022-12-07T00:36:53.159Z,26.70
2022-12-07T00:41:48.716Z,24.75
2022-12-07T00:44:17.860Z,29.27
2022-12-07T00:46:47.002Z,29.50
2022-12-07T00:49:14.796Z,28.48
2022-12-07T00:54:10.319Z,26.70
2022-12-07T00:56:38.150Z,29.15
2022-12-07T00:59:06.276Z,28.25
2022-12-07T01:01:36.748Z,32.45
2022-12-07T01:04:05.149Z,35.95
2022-12-07T01:06:33.529Z,35.45
2022-12-07T01:09:01.496Z,37.85
2022-12-07T01:11:30.694Z,37.30
2022-12-07T01:13:59.909Z,37.55
2022-12-07T01:16:28.635Z,35.80
2022-12-07T01:18:58.445Z,43.28
2022-12-07T01:21:27.116Z,36.13
2022-12-07T01:23:54.939Z,35.05
2022-12-07T01:26:36.319Z,34.92
2022-12-07T01:29:24.424Z,30.65
2022-12-07T01:31:52.450Z,33.88
2022-12-07T01:37:02.056Z,35.35
2022-12-07T01:39:29.767Z,37.22
2022-12-07T01:41:57.758Z,37.45
2022-12-07T01:44:26.180Z,40.92
2022-12-07T01:46:55.568Z,49.10
2022-12-07T01:49:26.255Z,42.53
2022-12-07T01:51:56.554Z,41.60
2022-12-07T01:54:27.066Z,45.10
2022-12-07T01:56:56.984Z,39.33
2022-12-07T01:59:26.953Z,44.67
2022-12-07T02:01:55.225Z,47.80
2022-12-07T02:04:23.982Z,49.75
2022-12-07T02:06:52.721Z,44.97
2022-12-07T02:09:20.575Z,45.88
2022-12-07T02:11:51.704Z,48.13
2022-12-07T02:14:19.599Z,41.53
2022-12-07T02:16:52.121Z,47.30
2022-12-07T02:19:40.885Z,45.80
2022-12-07T02:22:19.387Z,43.65
2022-12-07T02:24:53.912Z,42.20
2022-12-07T02:27:39.094Z,45.53
2022-12-07T02:30:09.217Z,50.13
2022-12-07T02:32:42.508Z,41.63
2022-12-07T02:35:12.825Z,37.60
2022-12-07T02:37:43.247Z,42.80
2022-12-07T02:40:19.001Z,42.63
2022-12-07T02:42:48.055Z,39.35
2022-12-07T02:45:19.339Z,47.13
2022-12-07T02:47:48.609Z,32.42
2022-12-07T02:50:16.733Z,39.33
2022-12-07T02:52:44.592Z,34.88
2022-12-07T02:55:13.642Z,36.63
2022-12-07T02:57:48.008Z,38.90
2022-12-07T03:00:19.212Z,34.45
2022-12-07T03:02:52.442Z,35.80
2022-12-07T03:05:31.649Z,33.58
2022-12-07T03:10:30.242Z,34.53
2022-12-07T03:13:04.284Z,37.35
2022-12-07T03:15:35.746Z,37.85
2022-12-07T03:18:04.897Z,39.40
2022-12-07T03:20:34.824Z,41.95
2022-12-07T03:23:02.907Z,33.72
2022-12-07T03:25:31.181Z,30.17
2022-12-07T03:28:00.112Z,34.40
2022-12-07T03:30:30.837Z,30.35
2022-12-07T03:33:02.051Z,33.70
2022-12-07T03:35:33.379Z,33.40
2022-12-07T03:38:02.475Z,28.05
2022-12-07T03:40:32.833Z,31.10
2022-12-07T03:43:02.681Z,29.38
2022-12-07T03:45:34.164Z,33.30
2022-12-07T03:48:06.100Z,30.23
2022-12-07T03:50:39.183Z,28.08
2022-12-07T03:53:11.079Z,27.90
2022-12-07T03:55:41.280Z,29.77
2022-12-07T03:58:13.061Z,27.00
2022-12-07T04:00:40.884Z,26.27
2022-12-07T04:03:10.119Z,28.25
2022-12-07T04:05:38.091Z,28.13
2022-12-07T04:08:06.287Z,31.02
2022-12-07T04:10:34.184Z,25.25
2022-12-07T04:13:01.924Z,43.30
2022-12-07T04:17:58.031Z,28.88
2022-12-07T04:20:27.202Z,32.40
2022-12-07T04:22:54.934Z,31.63
2022-12-07T04:27:50.285Z,38.75
2022-12-07T04:32:45.681Z,45.92
2022-12-07T04:37:43.011Z,47.60
2022-12-07T04:40:12.333Z,42.22
2022-12-07T04:42:40.291Z,40.20
2022-12-07T04:45:09.016Z,40.55
2022-12-07T04:47:37.341Z,33.35
2022-12-07T04:50:05.824Z,38.28
2022-12-07T04:52:33.849Z,34.35
2022-12-07T04:55:03.195Z,43.90
2022-12-07T04:57:31.005Z,33.40
2022-12-07T04:59:59.031Z,38.00
2022-12-07T05:02:27.214Z,28.45
2022-12-07T05:04:54.976Z,32.50
2022-12-07T05:09:50.272Z,48.60
2022-12-07T05:14:47.151Z,30.73
2022-12-07T05:17:15.311Z,31.08
2022-12-07T05:19:43.102Z,28.92
2022-12-07T05:22:11.624Z,31.70
2022-12-07T05:24:41.750Z,27.77
2022-12-07T05:27:09.669Z,25.50
2022-12-07T05:29:37.448Z,35.33
2022-12-07T05:32:06.825Z,30.60
2022-12-07T05:34:34.622Z,31.42
2022-12-07T05:39:30.289Z,26.08
2022-12-07T05:42:16.338Z,32.33
2022-12-07T05:44:44.794Z,32.45
2022-12-07T05:47:14.230Z,35.80
2022-12-07T05:49:42.395Z,40.78
2022-12-07T05:52:10.218Z,41.63
2022-12-07T05:54:37.938Z,41.65
2022-12-07T05:59:33.046Z,46.85
2022-12-07T06:02:02.473Z,43.28
2022-12-07T06:04:33.538Z,52.45
2022-12-07T06:07:01.367Z,44.78
2022-12-07T06:09:29.701Z,35.25
2022-12-07T06:12:16.279Z,44.00
2022-12-07T06:14:45.280Z,38.28
2022-12-07T06:17:13.520Z,32.97
2022-12-07T06:19:43.228Z,39.33
2022-12-07T06:22:12.750Z,34.38
2022-12-07T06:24:41.225Z,34.42
2022-12-07T06:27:09.190Z,31.15
2022-12-07T06:29:37.047Z,35.88
2022-12-07T06:32:05.157Z,38.88
2022-12-07T06:34:33.714Z,47.50
2022-12-07T06:37:02.918Z,92.63
2022-12-07T06:39:30.918Z,68.00
2022-12-07T06:41:58.955Z,51.65
2022-12-07T06:44:26.855Z,47.10
2022-12-07T06:47:12.212Z,41.00
2022-12-07T06:49:42.516Z,36.58
2022-12-07T06:52:12.035Z,37.03
2022-12-07T06:54:39.947Z,31.77
2022-12-07T06:57:08.372Z,34.13
2022-12-07T06:59:36.128Z,35.58
2022-12-07T07:02:04.116Z,34.13
2022-12-07T07:04:32.065Z,37.25
2022-12-07T07:07:01.381Z,40.25
2022-12-07T07:09:30.577Z,35.45
2022-12-07T07:11:58.364Z,45.42
2022-12-07T07:14:26.118Z,41.70
2022-12-07T07:16:53.915Z,34.38
2022-12-07T07:19:21.817Z,35.47
2022-12-07T07:21:49.663Z,36.42
2022-12-07T07:24:17.804Z,39.55
2022-12-07T07:26:47.057Z,38.10
2022-12-07T07:29:14.957Z,34.65
2022-12-07T07:31:42.793Z,38.08
2022-12-07T07:34:11.089Z,50.53
2022-12-07T07:36:38.874Z,35.53
2022-12-07T07:39:06.749Z,36.80
2022-12-07T07:41:34.559Z,35.42
2022-12-07T07:44:05.367Z,34.63
2022-12-07T07:46:34.340Z,33.33
2022-12-07T07:49:02.307Z,38.63
2022-12-07T07:51:33.326Z,34.63
2022-12-07T07:54:01.117Z,37.88
2022-12-07T07:56:29.363Z,41.20
2022-12-07T07:58:57.511Z,42.80
2022-12-07T08:01:27.310Z,45.72
2022-12-07T08:03:55.278Z,39.63
2022-12-07T08:06:25.552Z,41.85
2022-12-07T08:08:58.973Z,40.70
2022-12-07T08:11:26.849Z,44.45
2022-12-07T08:13:54.723Z,39.40
2022-12-07T08:16:22.825Z,36.08
2022-12-07T08:18:52.295Z,39.97
2022-12-07T08:21:20.222Z,34.28
2022-12-07T08:23:47.998Z,39.55
2022-12-07T08:26:16.803Z,40.10
2022-12-07T08:28:46.051Z,38.22
2022-12-07T08:31:16.123Z,58.53
2022-12-07T08:33:44.028Z,40.45
2022-12-07T08:36:15.408Z,38.78
2022-12-07T08:39:01.583Z,41.22
2022-12-07T08:41:31.970Z,37.23
2022-12-07T08:43:59.737Z,34.90
2022-12-07T08:46:29.249Z,38.42
2022-12-07T08:48:59.261Z,49.97
2022-12-07T08:51:28.723Z,38.67
2022-12-07T08:53:58.221Z,37.33
2022-12-07T08:56:26.542Z,38.22
2022-12-07T08:58:54.615Z,34.08
2022-12-07T09:01:22.565Z,36.85
2022-12-07T09:03:50.579Z,33.85
2022-12-07T09:06:18.527Z,30.55
2022-12-07T09:08:49.367Z,31.50
2022-12-07T09:11:17.777Z,35.83
2022-12-07T09:13:45.546Z,36.83
2022-12-07T09:16:13.426Z,28.98
2022-12-07T09:18:41.300Z,33.30
2022-12-07T09:23:36.549Z,35.08
2022-12-07T09:28:39.722Z,49.00
2022-12-07T09:31:24.678Z,38.65
2022-12-07T09:33:55.999Z,39.40
2022-12-07T09:36:23.990Z,45.22
2022-12-07T09:38:51.818Z,44.63
2022-12-07T09:41:19.905Z,45.35
2022-12-07T09:43:49.247Z,37.22
2022-12-07T09:46:20.054Z,33.38
2022-12-07T09:48:49.659Z,19.70
2022-12-07T09:51:23.742Z,15.25
2022-12-07T09:53:53.191Z,13.15
2022-12-07T09:56:21.457Z,15.00
2022-12-07T09:58:51.303Z,12.05
2022-12-07T10:01:20.899Z,10.65
2022-12-07T10:03:51.797Z,12.95
2022-12-07T10:06:20.410Z,21.60
2022-12-07T10:08:48.879Z,26.63
2022-12-07T10:11:17.361Z,28.50
2022-12-07T10:13:46.461Z,23.65
2022-12-07T10:16:33.600Z,25.17
2022-12-07T10:19:20.024Z,28.33
2022-12-07T10:22:01.610Z,27.77
2022-12-07T10:24:29.625Z,27.95
2022-12-07T10:26:57.978Z,21.35
2022-12-07T10:29:26.888Z,31.30
2022-12-07T10:31:58.035Z,25.48
2022-12-07T10:34:27.526Z,26.77
2022-12-07T10:36:55.810Z,27.30
2022-12-07T10:39:24.277Z,46.92
2022-12-07T10:41:56.608Z,25.80
2022-12-07T10:44:25.597Z,27.48
2022-12-07T10:47:03.273Z,23.45
2022-12-07T10:49:40.203Z,24.77
2022-12-07T10:52:12.973Z,25.17
2022-12-07T10:54:46.827Z,39.15
2022-12-07T10:57:32.402Z,25.85
2022-12-07T11:00:21.155Z,25.92
2022-12-07T11:03:04.288Z,19.10
2022-12-07T11:05:38.504Z,18.30
2022-12-07T11:08:12.290Z,10.25
2022-12-07T11:10:44.850Z,11.88
2022-12-07T11:13:28.990Z,14.07
2022-12-07T11:16:02.226Z,9.02
2022-12-07T11:18:31.598Z,11.68
2022-12-07T11:21:06.829Z,11.32
2022-12-07T11:23:42.159Z,12.75
2022-12-07T11:26:16.866Z,11.68
2022-12-07T11:28:52.943Z,11.25
2022-12-07T11:31:29.376Z,12.73
2022-12-07T11:34:01.382Z,11.40
2022-12-07T11:36:35.796Z,12.57
2022-12-07T11:39:05.191Z,12.43
2022-12-07T11:41:36.737Z,11.82
2022-12-07T11:44:09.650Z,12.68
2022-12-07T11:46:46.239Z,15.13
2022-12-07T11:49:17.155Z,10.00
2022-12-07T11:51:46.931Z,11.20
2022-12-07T11:54:17.534Z,11.13
2022-12-07T11:56:45.957Z,13.43
2022-12-07T11:59:15.908Z,11.73
2022-12-07T12:01:52.956Z,12.25
2022-12-07T12:04:26.125Z,15.95
2022-12-07T12:06:56.394Z,11.70
2022-12-07T12:09:42.402Z,12.52
2022-12-07T12:15:15.905Z,12.80
2022-12-07T12:20:20.104Z,12.45
2022-12-07T12:22:52.177Z,11.35
2022-12-07T12:25:23.061Z,12.88
2022-12-07T12:27:52.304Z,12.77
2022-12-07T12:30:28.825Z,14.98
2022-12-07T12:33:03.379Z,11.48
2022-12-07T12:35:33.588Z,18.25
2022-12-07T12:38:20.003Z,12.65
2022-12-07T12:40:51.213Z,12.20
2022-12-07T12:43:37.754Z,12.18
2022-12-07T12:46:20.484Z,11.05
2022-12-07T12:48:48.465Z,9.10
2022-12-07T12:51:34.812Z,14.93
2022-12-07T12:54:05.850Z,16.80
2022-12-07T12:56:42.984Z,16.20
2022-12-07T12:59:28.676Z,27.63
2022-12-07T13:01:58.500Z,11.35
2022-12-07T13:04:41.430Z,11.88
2022-12-07T13:07:13.767Z,12.18
2022-12-07T13:09:44.157Z,16.25
2022-12-07T13:12:16.422Z,12.65
2022-12-07T13:14:57.802Z,13.48
2022-12-07T13:17:44.641Z,16.17
2022-12-07T13:20:35.742Z,26.95
2022-12-07T13:23:03.730Z,23.75
2022-12-07T13:25:49.530Z,20.45
2022-12-07T13:28:19.625Z,12.93
2022-12-07T13:30:49.644Z,20.33
2022-12-07T13:33:19.510Z,16.35
2022-12-07T13:35:47.543Z,14.55
2022-12-07T13:38:24.484Z,10.50
2022-12-07T13:41:02.148Z,15.02
2022-12-07T13:43:31.532Z,17.70
2022-12-07T13:46:01.913Z,9.95
2022-12-07T13:48:33.588Z,10.18
2022-12-07T13:51:02.732Z,16.30
2022-12-07T13:53:31.602Z,28.77
2022-12-07T13:56:01.020Z,15.65
2022-12-07T13:58:29.297Z,14.05
2022-12-07T14:00:58.976Z,14.13
2022-12-07T14:03:32.815Z,12.50
2022-12-07T14:06:16.687Z,16.88
2022-12-07T14:08:44.817Z,14.02
2022-12-07T14:11:17.085Z,12.45
2022-12-07T14:13:53.823Z,11.20
2022-12-07T14:16:28.808Z,15.85
2022-12-07T14:18:57.185Z,12.77
2022-12-07T14:21:25.705Z,13.25
2022-12-07T14:24:20.483Z,19.60
2022-12-07T14:26:48.812Z,14.10
2022-12-07T14:29:35.273Z,14.77
2022-12-07T14:32:18.819Z,13.15
2022-12-07T14:34:55.211Z,15.88
2022-12-07T14:37:23.136Z,12.30
2022-12-07T14:39:51.069Z,13.25
2022-12-07T14:42:19.067Z,15.82
2022-12-07T14:44:46.928Z,16.73
2022-12-07T14:50:06.589Z,32.40
2022-12-07T14:55:26.027Z,14.00
2022-12-07T14:57:54.134Z,15.45
2022-12-07T15:00:23.114Z,21.55
2022-12-07T15:02:52.655Z,18.20
2022-12-07T15:05:20.569Z,16.27
2022-12-07T15:07:49.221Z,18.45
2022-12-07T15:10:23.944Z,16.42
2022-12-07T15:12:52.691Z,14.55
2022-12-07T15:17:48.088Z,14.15
2022-12-07T15:20:18.687Z,12.23
2022-12-07T15:22:46.549Z,21.27
2022-12-07T15:25:15.212Z,18.00
2022-12-07T15:27:43.085Z,17.35
2022-12-07T15:30:11.117Z,14.23
2022-12-07T15:32:39.972Z,16.80
2022-12-07T15:35:08.459Z,17.13
2022-12-07T15:37:37.753Z,19.15
2022-12-07T15:40:08.115Z,20.40
2022-12-07T15:42:37.205Z,16.35
2022-12-07T15:45:07.673Z,17.73
2022-12-07T15:47:54.893Z,18.27
2022-12-07T15:52:53.895Z,16.02
2022-12-07T15:55:21.856Z,18.98
2022-12-07T15:57:50.478Z,16.67
2022-12-07T16:00:18.865Z,18.50
2022-12-07T16:02:46.650Z,17.67
2022-12-07T16:05:14.451Z,21.67
2022-12-07T16:07:43.179Z,13.40
2022-12-07T16:10:12.742Z,17.33
2022-12-07T16:12:40.570Z,16.95
2022-12-07T16:15:08.949Z,20.80
2022-12-07T16:17:36.813Z,18.20
2022-12-07T16:20:09.290Z,18.92
2022-12-07T16:22:37.134Z,17.00
2022-12-07T16:25:05.704Z,18.88
2022-12-07T16:27:35.294Z,18.10
2022-12-07T16:30:03.139Z,16.38
2022-12-07T16:32:31.008Z,14.70
2022-12-07T16:34:58.772Z,17.00
2022-12-07T16:39:54.104Z,16.00
2022-12-07T16:42:22.025Z,15.43
2022-12-07T16:44:51.145Z,34.72
2022-12-07T16:47:18.882Z,14.60
2022-12-07T16:52:20.292Z,21.45
2022-12-07T16:54:49.427Z,16.02
2022-12-07T16:57:22.589Z,17.88
2022-12-07T16:59:52.882Z,16.65
2022-12-07T17:02:21.085Z,13.98
2022-12-07T17:04:48.937Z,15.45
2022-12-07T17:07:19.844Z,19.95
2022-12-07T17:09:47.865Z,19.13
2022-12-07T17:12:15.737Z,15.38
2022-12-07T17:15:01.498Z,20.98
2022-12-07T17:17:31.073Z,16.42
2022-12-07T17:19:59.015Z,20.55
2022-12-07T17:22:26.803Z,20.20
2022-12-07T17:24:54.586Z,19.92
2022-12-07T17:27:22.351Z,20.42
2022-12-07T17:29:50.242Z,20.83
2022-12-07T17:32:18.142Z,19.27
2022-12-07T17:34:47.429Z,21.20
2022-12-07T17:37:15.305Z,19.65
2022-12-07T17:42:28.379Z,24.65
2022-12-07T17:44:56.195Z,25.30
2022-12-07T17:47:24.003Z,28.98
2022-12-07T17:49:53.189Z,27.13
2022-12-07T17:52:38.317Z,29.20
2022-12-07T17:55:06.972Z,32.35
2022-12-07T17:57:34.863Z,27.15
2022-12-07T18:00:02.738Z,28.48
2022-12-07T18:02:39.802Z,33.40
2022-12-07T18:05:09.741Z,25.80
2022-12-07T18:07:37.513Z,27.08
2022-12-07T18:10:07.446Z,26.73
2022-12-07T18:12:35.246Z,34.53
2022-12-07T18:15:03.222Z,28.25
2022-12-07T18:17:31.211Z,26.67
2022-12-07T18:20:01.075Z,25.88
2022-12-07T18:22:30.242Z,29.92
2022-12-07T18:24:58.015Z,28.58
2022-12-07T18:29:54.237Z,30.42
2022-12-07T18:32:22.163Z,34.15
2022-12-07T18:34:50.105Z,27.42
2022-12-07T18:37:17.922Z,31.15
2022-12-07T18:39:47.057Z,27.10
2022-12-07T18:42:14.877Z,28.30
2022-12-07T18:44:42.667Z,31.27
2022-12-07T18:49:39.159Z,31.05
2022-12-07T18:52:06.903Z,29.15
2022-12-07T18:54:34.638Z,30.20
2022-12-07T18:59:50.004Z,32.28
2022-12-07T19:02:19.133Z,32.88
2022-12-07T19:04:47.013Z,29.02
2022-12-07T19:09:42.575Z,29.45
2022-12-07T19:12:12.535Z,38.25
2022-12-07T19:14:41.718Z,35.55
2022-12-07T19:17:11.306Z,44.65
2022-12-07T19:19:40.094Z,39.78
2022-12-07T19:22:08.568Z,36.30
2022-12-07T19:24:37.258Z,37.35
2022-12-07T19:27:05.312Z,35.72
2022-12-07T19:29:33.097Z,39.13
2022-12-07T19:32:03.054Z,41.30
2022-12-07T19:34:30.977Z,45.08
2022-12-07T19:36:58.956Z,40.35
2022-12-07T19:39:26.696Z,36.75
2022-12-07T19:44:25.374Z,42.13
2022-12-07T19:46:57.329Z,41.92
2022-12-07T19:49:31.428Z,41.45
2022-12-07T19:52:00.461Z,37.80
2022-12-07T19:54:29.176Z,34.20
2022-12-07T19:56:58.234Z,38.33
2022-12-07T19:59:27.230Z,35.35
2022-12-07T20:01:55.158Z,38.83
2022-12-07T20:04:23.494Z,33.47
2022-12-07T20:06:53.605Z,37.60
2022-12-07T20:09:21.774Z,37.85
2022-12-07T20:12:07.145Z,40.88
2022-12-07T20:14:35.074Z,33.13
2022-12-07T20:17:03.322Z,39.47
2022-12-07T20:19:31.416Z,37.10
2022-12-07T20:22:00.572Z,32.85
2022-12-07T20:24:28.534Z,41.17
2022-12-07T20:26:56.348Z,34.65
2022-12-07T20:29:25.193Z,40.22
2022-12-07T20:31:54.037Z,36.53
2022-12-07T20:34:22.309Z,36.53
2022-12-07T20:36:50.298Z,38.28
2022-12-07T20:39:19.525Z,42.72
2022-12-07T20:42:04.864Z,41.33
2022-12-07T20:44:32.824Z,38.15
2022-12-07T20:47:00.673Z,47.08
2022-12-07T20:49:28.584Z,41.30
2022-12-07T20:51:56.383Z,35.92
2022-12-07T20:54:25.503Z,38.78
2022-12-07T20:56:53.333Z,37.92
2022-12-07T21:01:48.741Z,40.33
2022-12-07T21:04:18.179Z,38.83
2022-12-07T21:06:45.945Z,38.45
2022-12-07T21:09:13.922Z,39.88
2022-12-07T21:11:43.075Z,43.38
2022-12-07T21:14:10.879Z,43.75
2022-12-07T21:16:38.608Z,41.13
2022-12-07T21:19:06.414Z,40.92
2022-12-07T21:21:34.543Z,38.47
2022-12-07T21:24:03.625Z,43.65
2022-12-07T21:26:33.871Z,38.60
2022-12-07T21:29:03.520Z,38.83
2022-12-07T21:31:31.496Z,40.67
2022-12-07T21:33:59.279Z,39.33
2022-12-07T21:36:27.328Z,43.10
2022-12-07T21:38:55.111Z,40.85
2022-12-07T21:41:23.577Z,45.95
2022-12-07T21:43:51.734Z,41.47
2022-12-07T21:46:21.521Z,38.58
2022-12-07T21:48:52.614Z,37.20
2022-12-07T21:51:21.167Z,38.20
2022-12-07T21:53:49.345Z,42.65
2022-12-07T21:56:17.823Z,38.65
2022-12-07T21:58:45.940Z,37.67
2022-12-07T22:01:18.062Z,41.38
2022-12-07T22:03:48.029Z,34.45
2022-12-07T22:06:16.112Z,44.33
2022-12-07T22:08:43.862Z,43.53
2022-12-07T22:11:13.874Z,51.80
2022-12-07T22:14:00.061Z,49.03
2022-12-07T22:16:28.314Z,43.65
2022-12-07T22:18:57.581Z,45.25
2022-12-07T22:21:25.625Z,49.60
2022-12-07T22:23:53.666Z,49.90
2022-12-07T22:26:24.494Z,44.03
2022-12-07T22:28:52.771Z,40.83
2022-12-07T22:31:21.738Z,42.53
2022-12-07T22:33:49.984Z,50.38
2022-12-07T22:36:19.394Z,42.63
2022-12-07T22:38:47.336Z,37.05
2022-12-07T22:41:18.035Z,40.45
2022-12-07T22:43:45.852Z,41.33
2022-12-07T22:46:13.617Z,38.50
2022-12-07T22:48:41.562Z,40.90
2022-12-07T22:51:19.094Z,48.65
2022-12-07T22:53:48.325Z,43.95
2022-12-07T22:56:16.175Z,44.50
2022-12-07T22:58:43.900Z,38.83
2022-12-07T23:03:39.428Z,49.47
2022-12-07T23:06:07.983Z,82.63
2022-12-07T23:08:35.945Z,46.08
2022-12-07T23:11:05.318Z,48.83
2022-12-07T23:13:32.136Z,42.17
2022-12-07T23:16:00.143Z,44.63
2022-12-07T23:18:28.240Z,48.45
2022-12-07T23:20:56.973Z,47.03
2022-12-07T23:23:24.988Z,43.85
2022-12-07T23:25:52.854Z,45.63
2022-12-07T23:28:22.100Z,44.47
2022-12-07T23:30:49.982Z,51.33
2022-12-07T23:33:17.911Z,43.10
2022-12-07T23:35:45.637Z,44.15
2022-12-07T23:40:41.078Z,41.13
2022-12-07T23:43:08.895Z,43.45
2022-12-07T23:45:38.193Z,40.95
2022-12-07T23:48:06.601Z,41.47
2022-12-07T23:50:34.888Z,35.75
2022-12-07T23:53:02.602Z,44.95
2022-12-07T23:57:57.947Z,34.63
